createdAt,value
2018-10-01T00:03:17.833Z,10
2018-10-01T00:13:26.104Z,10
2018-10-01T00:23:34.002Z,8
2018-10-01T00:26:49.263Z,9
2018-10-01T00:36:59.493Z,7
2018-10-01T00:47:09.147Z,5
2018-10-01T00:57:17.671Z,5
2018-10-01T01:07:26.702Z,6
2018-10-01T01:17:35.454Z,5
2018-10-01T01:27:44.960Z,5
2018-10-01T01:37:55.410Z,3
2018-10-01T01:48:02.300Z,3
2018-10-01T01:58:11.534Z,5
2018-10-01T02:08:20.879Z,99
2018-10-01T02:18:29.548Z,109
2018-10-01T02:28:37.907Z,49
2018-10-01T02:38:48.438Z,3
2018-10-01T02:48:57.042Z,5
2018-10-01T02:59:05.935Z,2
2018-10-01T03:09:14.572Z,2
2018-10-01T03:19:23.732Z,3
2018-10-01T03:29:29.295Z,2
2018-10-01T03:39:38.498Z,2
2018-10-01T03:49:47.861Z,2
2018-10-01T03:59:55.099Z,2
2018-10-01T04:10:05.279Z,2
2018-10-01T04:20:13.097Z,1
2018-10-01T04:30:21.062Z,2
2018-10-01T04:40:28.372Z,2
2018-10-01T04:50:37.292Z,2
2018-10-01T05:00:45.398Z,2
2018-10-01T05:10:54.965Z,4
2018-10-01T05:21:04.291Z,1
2018-10-01T05:31:12.460Z,2
2018-10-01T05:41:20.554Z,2
2018-10-01T05:51:30.417Z,2
2018-10-01T06:01:39.022Z,4
2018-10-01T06:11:46.313Z,3
2018-10-01T06:21:54.583Z,2
2018-10-01T06:32:02.776Z,2
2018-10-01T06:42:12.171Z,2
2018-10-01T06:52:21.408Z,2
2018-10-01T07:02:29.831Z,1
2018-10-01T07:12:38.911Z,3
2018-10-01T07:22:51.177Z,3
2018-10-01T07:32:58.841Z,2
2018-10-01T07:43:03.863Z,2
2018-10-01T07:53:13.422Z,1
2018-10-01T08:03:23.736Z,1
2018-10-01T08:13:33.074Z,3
2018-10-01T08:23:44.211Z,2
2018-10-01T08:33:47.781Z,2
2018-10-01T08:43:57.446Z,2
2018-10-01T08:54:08.285Z,3
2018-10-01T09:04:16.852Z,5
2018-10-01T09:14:24.813Z,10
2018-10-01T09:24:35.219Z,13
2018-10-01T09:34:43.183Z,12
2018-10-01T09:44:53.325Z,10
2018-10-01T09:55:01.908Z,13
2018-10-01T10:05:11.525Z,13
2018-10-01T10:15:17.150Z,11
2018-10-01T10:25:28.379Z,11
2018-10-01T10:35:36.396Z,11
2018-10-01T10:45:44.682Z,10
2018-10-01T10:55:53.497Z,8
2018-10-01T10:56:38.598Z,9
2018-10-01T11:06:48.216Z,11
2018-10-01T11:16:56.446Z,11
2018-10-01T11:27:06.222Z,15
2018-10-01T11:37:14.991Z,17
2018-10-01T11:41:33.696Z,17
2018-10-01T11:51:42.856Z,16
2018-10-01T12:01:50.231Z,15
2018-10-01T12:11:59.122Z,16
2018-10-01T12:22:09.477Z,14
2018-10-01T12:32:17.352Z,13
2018-10-01T12:42:29.000Z,12
2018-10-01T12:52:38.765Z,9
2018-10-01T13:02:51.440Z,8
2018-10-01T13:13:02.655Z,10
2018-10-01T13:23:08.221Z,9
2018-10-01T13:33:18.184Z,12
2018-10-01T13:43:26.152Z,24
2018-10-01T13:53:36.835Z,21
2018-10-01T14:03:43.836Z,12
2018-10-01T14:13:57.987Z,19
2018-10-01T14:24:03.253Z,18
2018-10-01T14:34:12.786Z,15
2018-10-01T14:44:20.652Z,15
2018-10-01T14:54:29.156Z,16
2018-10-01T15:04:34.895Z,19
2018-10-01T15:14:46.444Z,19
2018-10-01T15:22:20.653Z,23
2018-10-01T15:32:23.869Z,16
2018-10-01T15:42:34.695Z,17
2018-10-01T15:52:41.536Z,24
2018-10-01T16:02:49.770Z,28
2018-10-01T16:12:58.532Z,24
2018-10-01T16:23:07.809Z,26
2018-10-01T16:33:14.609Z,28
2018-10-01T16:43:22.180Z,24
2018-10-01T16:53:29.890Z,22
2018-10-01T17:03:38.909Z,16
2018-10-01T17:13:49.067Z,16
2018-10-01T17:23:54.609Z,16
2018-10-01T17:34:03.454Z,12
2018-10-01T17:44:52.440Z,15
2018-10-01T17:54:58.913Z,11
2018-10-01T18:05:03.622Z,17
2018-10-01T18:15:12.676Z,12
2018-10-01T18:25:22.643Z,13
2018-10-01T18:35:32.166Z,14
2018-10-01T18:45:42.855Z,13
2018-10-01T18:55:51.591Z,11
2018-10-01T19:06:02.152Z,11
2018-10-01T19:16:10.015Z,12
2018-10-01T19:26:20.130Z,16
2018-10-01T19:36:30.648Z,20
2018-10-01T19:46:40.452Z,12
2018-10-01T19:56:48.284Z,10
2018-10-01T20:06:59.330Z,11
2018-10-01T20:17:06.660Z,9
2018-10-01T20:27:19.009Z,9
2018-10-01T20:37:27.769Z,8
2018-10-01T20:47:36.577Z,7
2018-10-01T20:57:44.416Z,8
2018-10-01T21:07:55.378Z,7
2018-10-01T21:18:04.790Z,7
2018-10-01T21:28:16.043Z,7
2018-10-01T21:38:24.647Z,7
2018-10-01T21:48:32.958Z,5
2018-10-01T21:58:42.708Z,6
2018-10-01T22:08:52.749Z,6
2018-10-01T22:19:03.943Z,6
2018-10-01T22:29:11.715Z,7
2018-10-01T22:39:20.017Z,7
2018-10-01T22:49:27.475Z,7
2018-10-01T22:59:35.162Z,7
2018-10-01T23:09:42.899Z,7
2018-10-01T23:19:50.066Z,7
2018-10-01T23:29:58.599Z,7
2018-10-01T23:40:07.078Z,6
2018-10-01T23:50:15.649Z,5
